sensor_id;sensor_type;location;lat;lon;timestamp;temperature;humidity
55121;DHT22;41019;48.512;9.036;2023-05-31T12:52:15;29.20;36.00
55121;DHT22;41019;48.512;9.036;2023-05-31T12:54:41;28.90;35.20
55121;DHT22;41019;48.512;9.036;2023-05-31T12:57:09;28.80;35.00
55121;DHT22;41019;48.512;9.036;2023-05-31T12:59:35;28.60;34.60
55121;DHT22;41019;48.512;9.036;2023-05-31T13:02:03;28.80;35.00
55121;DHT22;41019;48.512;9.036;2023-05-31T13:04:30;29.10;35.00
55121;DHT22;41019;48.512;9.036;2023-05-31T13:06:56;28.90;34.50
55121;DHT22;41019;48.512;9.036;2023-05-31T13:09:25;29.10;34.10
55121;DHT22;41019;48.512;9.036;2023-05-31T13:11:51;29.30;34.80
55121;DHT22;41019;48.512;9.036;2023-05-31T13:14:19;29.60;35.00
55121;DHT22;41019;48.512;9.036;2023-05-31T13:16:45;29.90;35.90
55121;DHT22;41019;48.512;9.036;2023-05-31T13:19:12;30.10;34.60
55121;DHT22;41019;48.512;9.036;2023-05-31T13:21:39;30.10;34.50
55121;DHT22;41019;48.512;9.036;2023-05-31T13:24:06;29.90;35.30
55121;DHT22;41019;48.512;9.036;2023-05-31T13:26:33;30.20;34.30
55121;DHT22;41019;48.512;9.036;2023-05-31T13:29:01;29.90;33.50
55121;DHT22;41019;48.512;9.036;2023-05-31T13:31:28;29.90;33.80
55121;DHT22;41019;48.512;9.036;2023-05-31T13:33:55;30.10;34.00
55121;DHT22;41019;48.512;9.036;2023-05-31T13:36:22;30.30;34.30
55121;DHT22;41019;48.512;9.036;2023-05-31T13:38:50;30.40;33.50
55121;DHT22;41019;48.512;9.036;2023-05-31T13:41:17;30.30;34.20
55121;DHT22;41019;48.512;9.036;2023-05-31T13:43:43;30.10;34.10
55121;DHT22;41019;48.512;9.036;2023-05-31T13:46:08;30.00;34.00
55121;DHT22;41019;48.512;9.036;2023-05-31T13:48:39;29.90;33.80
55121;DHT22;41019;48.512;9.036;2023-05-31T13:51:05;29.80;33.30
55121;DHT22;41019;48.512;9.036;2023-05-31T13:53:31;29.80;32.90
55121;DHT22;41019;48.512;9.036;2023-05-31T13:55:58;29.70;33.80
55121;DHT22;41019;48.512;9.036;2023-05-31T13:58:24;29.80;34.10
55121;DHT22;41019;48.512;9.036;2023-05-31T14:00:51;29.70;33.70
55121;DHT22;41019;48.512;9.036;2023-05-31T14:03:17;30.10;34.50
55121;DHT22;41019;48.512;9.036;2023-05-31T14:05:44;29.80;33.30
55121;DHT22;41019;48.512;9.036;2023-05-31T14:08:12;29.50;32.80
55121;DHT22;41019;48.512;9.036;2023-05-31T14:10:38;29.50;32.60
55121;DHT22;41019;48.512;9.036;2023-05-31T14:13:05;29.80;33.10
55121;DHT22;41019;48.512;9.036;2023-05-31T14:15:31;29.80;32.90
55121;DHT22;41019;48.512;9.036;2023-05-31T14:17:57;29.50;33.40
55121;DHT22;41019;48.512;9.036;2023-05-31T14:20:23;29.40;33.00
55121;DHT22;41019;48.512;9.036;2023-05-31T14:22:49;29.40;32.60
55121;DHT22;41019;48.512;9.036;2023-05-31T14:25:15;29.50;32.40
55121;DHT22;41019;48.512;9.036;2023-05-31T14:27:42;29.50;32.00
55121;DHT22;41019;48.512;9.036;2023-05-31T14:30:08;29.50;33.00
55121;DHT22;41019;48.512;9.036;2023-05-31T14:32:34;29.50;32.60
55121;DHT22;41019;48.512;9.036;2023-05-31T14:35:00;29.50;33.00
55121;DHT22;41019;48.512;9.036;2023-05-31T14:37:26;29.30;31.90
55121;DHT22;41019;48.512;9.036;2023-05-31T14:39:52;29.10;31.40
55121;DHT22;41019;48.512;9.036;2023-05-31T14:42:18;29.10;32.10
55121;DHT22;41019;48.512;9.036;2023-05-31T14:44:45;29.20;32.40
55121;DHT22;41019;48.512;9.036;2023-05-31T14:47:11;29.20;32.90
55121;DHT22;41019;48.512;9.036;2023-05-31T14:49:36;29.00;31.80
55121;DHT22;41019;48.512;9.036;2023-05-31T14:52:03;29.10;31.10
55121;DHT22;41019;48.512;9.036;2023-05-31T14:54:29;29.20;31.20
55121;DHT22;41019;48.512;9.036;2023-05-31T14:56:55;29.10;31.20
55121;DHT22;41019;48.512;9.036;2023-05-31T14:59:21;29.10;31.00
55121;DHT22;41019;48.512;9.036;2023-05-31T15:01:49;29.00;31.20
55121;DHT22;41019;48.512;9.036;2023-05-31T15:04:15;28.90;30.50
55121;DHT22;41019;48.512;9.036;2023-05-31T15:06:42;28.50;30.50
55121;DHT22;41019;48.512;9.036;2023-05-31T15:09:08;28.60;31.10
55121;DHT22;41019;48.512;9.036;2023-05-31T15:11:36;28.40;30.70
55121;DHT22;41019;48.512;9.036;2023-05-31T15:14:03;28.50;31.70
55121;DHT22;41019;48.512;9.036;2023-05-31T15:16:29;28.40;30.90
55121;DHT22;41019;48.512;9.036;2023-05-31T15:18:56;28.50;31.70
55121;DHT22;41019;48.512;9.036;2023-05-31T15:21:21;28.60;32.50
55121;DHT22;41019;48.512;9.036;2023-05-31T15:23:47;28.70;32.20
55121;DHT22;41019;48.512;9.036;2023-05-31T15:26:14;28.70;31.70
55121;DHT22;41019;48.512;9.036;2023-05-31T15:28:40;28.70;31.50
55121;DHT22;41019;48.512;9.036;2023-05-31T15:31:07;28.70;31.80
55121;DHT22;41019;48.512;9.036;2023-05-31T15:33:36;28.50;31.00
55121;DHT22;41019;48.512;9.036;2023-05-31T15:36:03;28.30;31.40
55121;DHT22;41019;48.512;9.036;2023-05-31T15:38:29;28.20;31.40
55121;DHT22;41019;48.512;9.036;2023-05-31T15:40:55;28.30;31.50
55121;DHT22;41019;48.512;9.036;2023-05-31T15:43:26;28.30;32.20
55121;DHT22;41019;48.512;9.036;2023-05-31T15:45:53;28.30;31.90
55121;DHT22;41019;48.512;9.036;2023-05-31T15:48:20;28.20;32.20
55121;DHT22;41019;48.512;9.036;2023-05-31T15:50:46;28.30;32.30
55121;DHT22;41019;48.512;9.036;2023-05-31T15:56:31;28.30;33.10
55121;DHT22;41019;48.512;9.036;2023-05-31T15:58:57;28.00;31.20
55121;DHT22;41019;48.512;9.036;2023-05-31T16:01:23;27.90;31.50
55121;DHT22;41019;48.512;9.036;2023-05-31T16:03:50;27.70;31.30
55121;DHT22;41019;48.512;9.036;2023-05-31T16:06:16;27.50;31.50
55121;DHT22;41019;48.512;9.036;2023-05-31T16:08:43;27.30;31.30
55121;DHT22;41019;48.512;9.036;2023-05-31T16:11:09;27.20;31.80
55121;DHT22;41019;48.512;9.036;2023-05-31T16:13:35;27.10;32.20
55121;DHT22;41019;48.512;9.036;2023-05-31T16:16:00;27.10;32.20
55121;DHT22;41019;48.512;9.036;2023-05-31T16:18:26;27.10;31.80
55121;DHT22;41019;48.512;9.036;2023-05-31T16:20:52;27.10;32.10
55121;DHT22;41019;48.512;9.036;2023-05-31T16:23:18;27.10;32.20
55121;DHT22;41019;48.512;9.036;2023-05-31T16:25:44;27.10;32.40
55121;DHT22;41019;48.512;9.036;2023-05-31T16:28:09;27.10;33.00
55121;DHT22;41019;48.512;9.036;2023-05-31T16:30:35;27.10;32.40
55121;DHT22;41019;48.512;9.036;2023-05-31T16:33:01;27.10;32.80
55121;DHT22;41019;48.512;9.036;2023-05-31T16:35:27;27.10;33.30
55121;DHT22;41019;48.512;9.036;2023-05-31T16:37:53;27.20;33.50
55121;DHT22;41019;48.512;9.036;2023-05-31T16:43:19;27.10;34.10
55121;DHT22;41019;48.512;9.036;2023-05-31T16:45:44;27.00;33.80
55121;DHT22;41019;48.512;9.036;2023-05-31T16:48:10;26.90;32.50
55121;DHT22;41019;48.512;9.036;2023-05-31T16:50:36;26.70;32.60
55121;DHT22;41019;48.512;9.036;2023-05-31T16:53:01;26.60;32.60
55121;DHT22;41019;48.512;9.036;2023-05-31T16:55:27;26.60;33.80
55121;DHT22;41019;48.512;9.036;2023-05-31T16:57:54;26.60;34.80
55121;DHT22;41019;48.512;9.036;2023-05-31T17:00:20;26.30;34.00
55121;DHT22;41019;48.512;9.036;2023-05-31T17:02:45;26.30;34.90
55121;DHT22;41019;48.512;9.036;2023-05-31T17:05:11;26.20;35.10
55121;DHT22;41019;48.512;9.036;2023-05-31T17:07:38;26.00;35.00
55121;DHT22;41019;48.512;9.036;2023-05-31T17:10:05;25.90;35.50
55121;DHT22;41019;48.512;9.036;2023-05-31T17:12:31;25.70;35.20
55121;DHT22;41019;48.512;9.036;2023-05-31T17:14:58;25.60;35.00
55121;DHT22;41019;48.512;9.036;2023-05-31T17:17:24;25.60;35.40
55121;DHT22;41019;48.512;9.036;2023-05-31T17:19:50;25.40;35.60
55121;DHT22;41019;48.512;9.036;2023-05-31T17:22:16;25.40;35.80
55121;DHT22;41019;48.512;9.036;2023-05-31T17:24:43;25.30;35.90
55121;DHT22;41019;48.512;9.036;2023-05-31T17:27:09;25.10;36.00
55121;DHT22;41019;48.512;9.036;2023-05-31T17:29:35;25.00;36.20
55121;DHT22;41019;48.512;9.036;2023-05-31T17:32:01;24.90;36.00
55121;DHT22;41019;48.512;9.036;2023-05-31T17:34:26;24.80;36.50
55121;DHT22;41019;48.512;9.036;2023-05-31T17:36:52;24.80;36.60
55121;DHT22;41019;48.512;9.036;2023-05-31T17:39:18;24.80;37.10
55121;DHT22;41019;48.512;9.036;2023-05-31T17:41:44;24.70;36.80
55121;DHT22;41019;48.512;9.036;2023-05-31T17:44:10;24.60;37.20
55121;DHT22;41019;48.512;9.036;2023-05-31T17:46:36;24.60;37.50
55121;DHT22;41019;48.512;9.036;2023-05-31T17:49:01;24.50;37.70
55121;DHT22;41019;48.512;9.036;2023-05-31T17:51:27;24.40;38.10
55121;DHT22;41019;48.512;9.036;2023-05-31T17:53:53;24.30;38.00
55121;DHT22;41019;48.512;9.036;2023-05-31T17:56:20;24.30;38.40
55121;DHT22;41019;48.512;9.036;2023-05-31T17:58:46;24.30;39.10
55121;DHT22;41019;48.512;9.036;2023-05-31T18:01:11;24.20;39.20
55121;DHT22;41019;48.512;9.036;2023-05-31T18:03:37;24.10;40.30
55121;DHT22;41019;48.512;9.036;2023-05-31T18:06:03;24.00;39.40
55121;DHT22;41019;48.512;9.036;2023-05-31T18:08:32;23.90;39.20
55121;DHT22;41019;48.512;9.036;2023-05-31T18:10:58;23.80;39.00
55121;DHT22;41019;48.512;9.036;2023-05-31T18:13:24;23.80;38.90
55121;DHT22;41019;48.512;9.036;2023-05-31T18:15:50;23.80;39.30
55121;DHT22;41019;48.512;9.036;2023-05-31T18:18:15;23.70;39.30
55121;DHT22;41019;48.512;9.036;2023-05-31T18:20:41;23.60;39.30
55121;DHT22;41019;48.512;9.036;2023-05-31T18:23:08;23.60;39.90
55121;DHT22;41019;48.512;9.036;2023-05-31T18:25:34;23.50;40.00
55121;DHT22;41019;48.512;9.036;2023-05-31T18:27:59;23.40;40.20
55121;DHT22;41019;48.512;9.036;2023-05-31T18:30:25;23.40;40.50
55121;DHT22;41019;48.512;9.036;2023-05-31T18:32:54;23.20;39.80
55121;DHT22;41019;48.512;9.036;2023-05-31T18:35:20;23.20;39.70
55121;DHT22;41019;48.512;9.036;2023-05-31T18:37:46;23.20;40.20
55121;DHT22;41019;48.512;9.036;2023-05-31T18:40:12;23.20;40.10
55121;DHT22;41019;48.512;9.036;2023-05-31T18:42:38;23.10;40.00
55121;DHT22;41019;48.512;9.036;2023-05-31T18:45:04;23.00;39.90
55121;DHT22;41019;48.512;9.036;2023-05-31T18:47:30;23.00;40.10
55121;DHT22;41019;48.512;9.036;2023-05-31T18:49:56;23.00;40.00
55121;DHT22;41019;48.512;9.036;2023-05-31T18:52:22;22.90;41.00
55121;DHT22;41019;48.512;9.036;2023-05-31T18:54:48;22.90;41.40
55121;DHT22;41019;48.512;9.036;2023-05-31T18:57:14;22.80;42.00
55121;DHT22;41019;48.512;9.036;2023-05-31T18:59:40;22.70;42.00
55121;DHT22;41019;48.512;9.036;2023-05-31T19:02:06;22.60;41.70
55121;DHT22;41019;48.512;9.036;2023-05-31T19:04:34;22.60;42.50
55121;DHT22;41019;48.512;9.036;2023-05-31T19:07:00;22.50;42.80
55121;DHT22;41019;48.512;9.036;2023-05-31T19:09:26;22.40;42.50
55121;DHT22;41019;48.512;9.036;2023-05-31T19:11:52;22.30;43.00
55121;DHT22;41019;48.512;9.036;2023-05-31T19:14:18;22.20;42.90
55121;DHT22;41019;48.512;9.036;2023-05-31T19:20:32;22.00;43.40
55121;DHT22;41019;48.512;9.036;2023-05-31T19:22:58;21.90;44.20
55121;DHT22;41019;48.512;9.036;2023-05-31T19:25:25;21.80;46.30
55121;DHT22;41019;48.512;9.036;2023-05-31T19:27:51;21.70;46.50
55121;DHT22;41019;48.512;9.036;2023-05-31T19:30:17;21.60;48.90
55121;DHT22;41019;48.512;9.036;2023-05-31T19:32:42;21.40;48.50
55121;DHT22;41019;48.512;9.036;2023-05-31T19:35:10;21.30;48.30
55121;DHT22;41019;48.512;9.036;2023-05-31T19:37:35;21.20;47.50
55121;DHT22;41019;48.512;9.036;2023-05-31T19:40:02;21.10;46.90
55121;DHT22;41019;48.512;9.036;2023-05-31T19:42:29;21.00;48.40
55121;DHT22;41019;48.512;9.036;2023-05-31T19:44:55;20.90;48.60
55121;DHT22;41019;48.512;9.036;2023-05-31T19:47:22;20.80;48.50
55121;DHT22;41019;48.512;9.036;2023-05-31T19:49:47;20.70;50.00
55121;DHT22;41019;48.512;9.036;2023-05-31T19:52:14;20.60;51.40
55121;DHT22;41019;48.512;9.036;2023-05-31T19:54:40;20.50;54.00
55121;DHT22;41019;48.512;9.036;2023-05-31T19:57:07;20.40;54.20
55121;DHT22;41019;48.512;9.036;2023-05-31T19:59:33;20.30;55.50
55121;DHT22;41019;48.512;9.036;2023-05-31T20:01:59;20.20;55.60
55121;DHT22;41019;48.512;9.036;2023-05-31T20:04:25;20.10;54.70
55121;DHT22;41019;48.512;9.036;2023-05-31T20:06:51;20.00;55.10
55121;DHT22;41019;48.512;9.036;2023-05-31T20:09:18;19.90;53.60
55121;DHT22;41019;48.512;9.036;2023-05-31T20:11:44;19.80;54.70
55121;DHT22;41019;48.512;9.036;2023-05-31T20:14:10;19.70;56.30
55121;DHT22;41019;48.512;9.036;2023-05-31T20:16:35;19.60;56.80
55121;DHT22;41019;48.512;9.036;2023-05-31T20:19:01;19.50;57.30
55121;DHT22;41019;48.512;9.036;2023-05-31T20:21:27;19.40;57.70
55121;DHT22;41019;48.512;9.036;2023-05-31T20:23:53;19.30;57.90
55121;DHT22;41019;48.512;9.036;2023-05-31T20:26:19;19.20;58.90
55121;DHT22;41019;48.512;9.036;2023-05-31T20:28:45;19.20;59.60
55121;DHT22;41019;48.512;9.036;2023-05-31T20:31:11;19.10;58.90
55121;DHT22;41019;48.512;9.036;2023-05-31T20:33:38;19.00;59.30
55121;DHT22;41019;48.512;9.036;2023-05-31T20:36:05;18.90;60.80
55121;DHT22;41019;48.512;9.036;2023-05-31T20:38:31;18.80;61.30
55121;DHT22;41019;48.512;9.036;2023-05-31T20:40:56;18.70;61.50
55121;DHT22;41019;48.512;9.036;2023-05-31T20:43:22;18.60;61.90
55121;DHT22;41019;48.512;9.036;2023-05-31T20:45:48;18.60;62.70
55121;DHT22;41019;48.512;9.036;2023-05-31T20:48:14;18.50;62.70
55121;DHT22;41019;48.512;9.036;2023-05-31T20:50:40;18.40;62.90
55121;DHT22;41019;48.512;9.036;2023-05-31T20:53:06;18.30;63.00
55121;DHT22;41019;48.512;9.036;2023-05-31T20:55:31;18.20;63.20
55121;DHT22;41019;48.512;9.036;2023-05-31T20:57:57;18.10;63.90
55121;DHT22;41019;48.512;9.036;2023-05-31T21:00:23;18.10;64.70
55121;DHT22;41019;48.512;9.036;2023-05-31T21:02:53;18.00;64.90
55121;DHT22;41019;48.512;9.036;2023-05-31T21:05:19;17.90;65.30
55121;DHT22;41019;48.512;9.036;2023-05-31T21:07:45;17.90;66.40
55121;DHT22;41019;48.512;9.036;2023-05-31T21:10:11;17.80;68.10
55121;DHT22;41019;48.512;9.036;2023-05-31T21:12:37;17.70;68.60
55121;DHT22;41019;48.512;9.036;2023-05-31T21:15:03;17.70;69.20
55121;DHT22;41019;48.512;9.036;2023-05-31T21:17:30;17.60;69.90
55121;DHT22;41019;48.512;9.036;2023-05-31T21:19:56;17.50;70.70
55121;DHT22;41019;48.512;9.036;2023-05-31T21:22:23;17.40;71.50
55121;DHT22;41019;48.512;9.036;2023-05-31T21:24:49;17.40;72.30
55121;DHT22;41019;48.512;9.036;2023-05-31T21:27:15;17.30;73.30
55121;DHT22;41019;48.512;9.036;2023-05-31T21:29:41;17.20;74.60
55121;DHT22;41019;48.512;9.036;2023-05-31T21:32:09;17.10;75.60
55121;DHT22;41019;48.512;9.036;2023-05-31T21:34:35;17.00;77.60
55121;DHT22;41019;48.512;9.036;2023-05-31T21:37:01;16.90;77.40
55121;DHT22;41019;48.512;9.036;2023-05-31T21:39:27;16.80;77.20
55121;DHT22;41019;48.512;9.036;2023-05-31T21:41:53;16.70;77.70
55121;DHT22;41019;48.512;9.036;2023-05-31T21:44:19;16.70;77.20
55121;DHT22;41019;48.512;9.036;2023-05-31T21:46:46;16.60;76.90
55121;DHT22;41019;48.512;9.036;2023-05-31T21:49:12;16.60;77.80
55121;DHT22;41019;48.512;9.036;2023-05-31T21:51:37;16.50;78.60
55121;DHT22;41019;48.512;9.036;2023-05-31T21:54:04;16.40;79.10
55121;DHT22;41019;48.512;9.036;2023-05-31T21:56:31;16.40;80.10
55121;DHT22;41019;48.512;9.036;2023-05-31T21:58:57;16.40;80.30
55121;DHT22;41019;48.512;9.036;2023-05-31T22:01:24;16.30;80.50
55121;DHT22;41019;48.512;9.036;2023-05-31T22:03:50;16.20;81.50
55121;DHT22;41019;48.512;9.036;2023-05-31T22:06:18;16.20;82.90
55121;DHT22;41019;48.512;9.036;2023-05-31T22:08:44;16.10;84.40
55121;DHT22;41019;48.512;9.036;2023-05-31T22:11:14;16.10;84.80
55121;DHT22;41019;48.512;9.036;2023-05-31T22:13:40;16.00;83.80
55121;DHT22;41019;48.512;9.036;2023-05-31T22:16:07;15.90;81.90
55121;DHT22;41019;48.512;9.036;2023-05-31T22:18:37;15.90;83.40
55121;DHT22;41019;48.512;9.036;2023-05-31T22:21:03;15.80;83.90
55121;DHT22;41019;48.512;9.036;2023-05-31T22:23:30;15.80;84.90
55121;DHT22;41019;48.512;9.036;2023-05-31T22:25:56;15.70;86.50
55121;DHT22;41019;48.512;9.036;2023-05-31T22:28:23;15.70;87.70
55121;DHT22;41019;48.512;9.036;2023-05-31T22:30:49;15.60;88.40
55121;DHT22;41019;48.512;9.036;2023-05-31T22:33:15;15.60;88.50
55121;DHT22;41019;48.512;9.036;2023-05-31T22:35:41;15.50;88.60
55121;DHT22;41019;48.512;9.036;2023-05-31T22:38:07;15.40;89.30
55121;DHT22;41019;48.512;9.036;2023-05-31T22:40:33;15.40;89.50
55121;DHT22;41019;48.512;9.036;2023-05-31T22:42:59;15.30;90.10
55121;DHT22;41019;48.512;9.036;2023-05-31T22:45:27;15.30;90.20
55121;DHT22;41019;48.512;9.036;2023-05-31T22:47:53;15.20;90.20
55121;DHT22;41019;48.512;9.036;2023-05-31T22:50:19;15.20;90.30
55121;DHT22;41019;48.512;9.036;2023-05-31T22:52:46;15.10;90.50
55121;DHT22;41019;48.512;9.036;2023-05-31T22:55:13;15.00;90.40
55121;DHT22;41019;48.512;9.036;2023-05-31T22:57:39;15.00;90.30
55121;DHT22;41019;48.512;9.036;2023-05-31T23:00:06;15.00;90.20
55121;DHT22;41019;48.512;9.036;2023-05-31T23:02:43;14.90;90.30
55121;DHT22;41019;48.512;9.036;2023-05-31T23:05:10;14.90;90.80
55121;DHT22;41019;48.512;9.036;2023-05-31T23:07:37;14.80;91.10
55121;DHT22;41019;48.512;9.036;2023-05-31T23:10:08;14.80;91.00
55121;DHT22;41019;48.512;9.036;2023-05-31T23:12:34;14.80;90.90
55121;DHT22;41019;48.512;9.036;2023-05-31T23:15:01;14.70;90.70
55121;DHT22;41019;48.512;9.036;2023-05-31T23:17:32;14.70;91.10
55121;DHT22;41019;48.512;9.036;2023-05-31T23:19:59;14.70;91.40
55121;DHT22;41019;48.512;9.036;2023-05-31T23:22:31;14.60;91.50
55121;DHT22;41019;48.512;9.036;2023-05-31T23:24:58;14.60;91.70
55121;DHT22;41019;48.512;9.036;2023-05-31T23:27:25;14.60;91.70
55121;DHT22;41019;48.512;9.036;2023-05-31T23:29:51;14.50;91.50
55121;DHT22;41019;48.512;9.036;2023-05-31T23:32:17;14.50;91.40
55121;DHT22;41019;48.512;9.036;2023-05-31T23:34:44;14.40;91.60
55121;DHT22;41019;48.512;9.036;2023-05-31T23:37:10;14.40;91.50
55121;DHT22;41019;48.512;9.036;2023-05-31T23:39:35;14.40;91.30
55121;DHT22;41019;48.512;9.036;2023-05-31T23:42:01;14.30;91.30
55121;DHT22;41019;48.512;9.036;2023-05-31T23:44:27;14.30;91.50
55121;DHT22;41019;48.512;9.036;2023-05-31T23:46:53;14.30;91.80
55121;DHT22;41019;48.512;9.036;2023-05-31T23:49:19;14.20;92.40
55121;DHT22;41019;48.512;9.036;2023-05-31T23:51:46;14.20;92.70
55121;DHT22;41019;48.512;9.036;2023-05-31T23:54:11;14.20;93.00
55121;DHT22;41019;48.512;9.036;2023-05-31T23:56:37;14.10;93.10
55121;DHT22;41019;48.512;9.036;2023-05-31T23:59:03;14.10;93.20
